createdAt,value
2022-11-26T00:01:28.200Z,54.40
2022-11-26T00:04:03.512Z,54.50
2022-11-26T00:06:39.882Z,54.50
2022-11-26T00:09:17.200Z,54.50
2022-11-26T00:11:52.735Z,54.40
2022-11-26T00:14:26.577Z,54.40
2022-11-26T00:17:00.676Z,54.50
2022-11-26T00:19:34.747Z,54.50
2022-11-26T00:22:16.325Z,54.70
2022-11-26T00:24:51.078Z,54.50
2022-11-26T00:27:28.996Z,54.20
2022-11-26T00:30:02.929Z,54.10
2022-11-26T00:32:37.322Z,54.10
2022-11-26T00:35:11.302Z,54.10
2022-11-26T00:37:47.564Z,54.10
2022-11-26T00:40:26.667Z,54.10
2022-11-26T00:43:02.252Z,54.10
2022-11-26T00:45:36.229Z,54.00
2022-11-26T00:48:13.225Z,54.00
2022-11-26T00:50:50.551Z,54.00
2022-11-26T00:53:28.483Z,54.00
2022-11-26T00:56:02.410Z,54.20
2022-11-26T00:58:37.893Z,54.40
2022-11-26T01:01:14.183Z,54.80
2022-11-26T01:03:48.340Z,55.10
2022-11-26T01:06:26.306Z,55.20
2022-11-26T01:09:00.953Z,55.30
2022-11-26T01:11:35.014Z,55.20
2022-11-26T01:14:17.008Z,55.20
2022-11-26T01:16:51.989Z,55.30
2022-11-26T01:19:26.175Z,55.30
2022-11-26T01:22:00.535Z,55.30
2022-11-26T01:24:34.750Z,55.20
2022-11-26T01:27:12.485Z,55.30
2022-11-26T01:29:47.905Z,55.30
2022-11-26T01:32:25.308Z,55.20
2022-11-26T01:35:03.247Z,55.20
2022-11-26T01:37:37.233Z,55.20
2022-11-26T01:40:37.335Z,55.20
2022-11-26T01:43:17.046Z,55.00
2022-11-26T01:45:52.544Z,55.10
2022-11-26T01:48:29.763Z,55.10
2022-11-26T01:51:06.251Z,55.10
2022-11-26T01:53:46.456Z,55.10
2022-11-26T01:56:27.526Z,55.00
2022-11-26T01:59:08.785Z,55.00
2022-11-26T02:01:44.828Z,55.00
2022-11-26T02:04:23.144Z,55.00
2022-11-26T02:06:58.561Z,55.00
2022-11-26T02:09:33.847Z,55.00
2022-11-26T02:12:08.475Z,55.00
2022-11-26T02:14:44.900Z,55.00
2022-11-26T02:17:27.715Z,55.00
2022-11-26T02:20:33.877Z,55.00
2022-11-26T02:23:56.010Z,55.00
2022-11-26T02:27:14.555Z,54.90
2022-11-26T02:30:17.728Z,54.90
2022-11-26T02:33:00.369Z,54.90
2022-11-26T02:35:42.246Z,55.00
2022-11-26T02:38:21.046Z,55.00
2022-11-26T02:40:55.007Z,55.00
2022-11-26T02:43:29.694Z,55.00
2022-11-26T02:46:10.931Z,54.90
2022-11-26T02:48:49.029Z,55.00
2022-11-26T02:51:30.708Z,55.00
2022-11-26T02:54:10.771Z,55.00
2022-11-26T02:56:45.247Z,55.00
2022-11-26T02:59:19.905Z,55.00
2022-11-26T03:02:00.452Z,55.00
2022-11-26T03:04:38.810Z,55.10
2022-11-26T03:07:15.035Z,55.10
2022-11-26T03:09:53.117Z,55.20
2022-11-26T03:12:27.220Z,55.10
2022-11-26T03:15:01.220Z,55.00
2022-11-26T03:17:39.175Z,55.00
2022-11-26T03:20:13.390Z,55.00
2022-11-26T03:22:47.339Z,55.00
2022-11-26T03:25:21.476Z,55.00
2022-11-26T03:27:55.496Z,55.00
2022-11-26T03:30:29.629Z,55.00
2022-11-26T03:33:05.023Z,55.00
2022-11-26T03:35:39.105Z,55.00
2022-11-26T03:38:12.992Z,55.00
2022-11-26T03:40:47.126Z,55.00
2022-11-26T03:43:21.092Z,55.00
2022-11-26T03:45:55.177Z,55.00
2022-11-26T03:48:30.844Z,55.00
2022-11-26T03:51:04.730Z,55.10
2022-11-26T03:53:38.690Z,55.10
2022-11-26T03:56:12.585Z,55.10
2022-11-26T03:58:46.429Z,55.10
2022-11-26T04:01:20.635Z,55.10
2022-11-26T04:03:55.967Z,55.20
2022-11-26T04:06:29.846Z,55.40
2022-11-26T04:09:03.697Z,55.60
2022-11-26T04:11:37.286Z,55.50
2022-11-26T04:14:11.261Z,55.60
2022-11-26T04:16:45.244Z,55.50
2022-11-26T04:19:20.666Z,55.60
2022-11-26T04:21:54.595Z,55.60
2022-11-26T04:24:28.806Z,55.60
2022-11-26T04:27:02.719Z,55.70
2022-11-26T04:29:37.675Z,55.70
2022-11-26T04:32:11.671Z,55.80
2022-11-26T04:34:47.022Z,55.80
2022-11-26T04:37:20.977Z,55.90
2022-11-26T04:39:57.479Z,55.90
2022-11-26T04:42:31.851Z,55.80
2022-11-26T04:45:09.787Z,55.90
2022-11-26T04:47:43.835Z,55.80
2022-11-26T04:50:19.262Z,55.80
2022-11-26T04:52:53.423Z,55.80
2022-11-26T04:55:27.510Z,55.90
2022-11-26T04:58:01.395Z,55.90
2022-11-26T05:00:36.390Z,55.90
2022-11-26T05:03:10.539Z,55.80
2022-11-26T05:05:46.795Z,55.80
2022-11-26T05:08:20.634Z,55.70
2022-11-26T05:10:54.623Z,55.80
2022-11-26T05:13:28.612Z,55.80
2022-11-26T05:16:02.446Z,55.70
2022-11-26T05:18:36.040Z,55.70
2022-11-26T05:21:11.363Z,55.70
2022-11-26T05:23:45.353Z,55.70
2022-11-26T05:26:19.353Z,55.70
2022-11-26T05:28:53.284Z,55.70
2022-11-26T05:31:27.301Z,55.70
2022-11-26T05:34:01.296Z,55.60
2022-11-26T05:36:36.653Z,55.60
2022-11-26T05:39:10.653Z,55.60
2022-11-26T05:41:44.758Z,55.50
2022-11-26T05:44:18.547Z,55.50
2022-11-26T05:46:52.264Z,55.50
2022-11-26T05:49:26.148Z,55.50
2022-11-26T05:52:01.864Z,55.40
2022-11-26T05:54:36.021Z,55.50
2022-11-26T05:57:10.923Z,55.50
2022-11-26T05:59:45.309Z,55.50
2022-11-26T06:02:19.617Z,55.40
2022-11-26T06:04:53.854Z,55.40
2022-11-26T06:07:29.311Z,55.40
2022-11-26T06:10:03.695Z,55.50
2022-11-26T06:12:38.056Z,55.50
2022-11-26T06:15:12.682Z,55.60
2022-11-26T06:17:46.681Z,55.50
2022-11-26T06:20:20.704Z,55.50
2022-11-26T06:22:56.209Z,55.50
2022-11-26T06:25:30.172Z,55.50
2022-11-26T06:28:04.182Z,55.50
2022-11-26T06:30:38.155Z,55.50
2022-11-26T06:33:12.330Z,55.50
2022-11-26T06:35:46.349Z,55.50
2022-11-26T06:38:21.878Z,55.40
2022-11-26T06:41:06.738Z,55.30
2022-11-26T06:43:40.621Z,55.20
2022-11-26T06:46:14.847Z,55.20
2022-11-26T06:48:48.908Z,55.30
2022-11-26T06:51:27.890Z,55.20
2022-11-26T06:54:03.454Z,55.40
2022-11-26T06:56:37.577Z,55.40
2022-11-26T06:59:11.683Z,55.30
2022-11-26T07:01:45.803Z,55.30
2022-11-26T07:04:19.778Z,55.20
2022-11-26T07:06:53.743Z,55.20
2022-11-26T07:09:29.135Z,55.10
2022-11-26T07:12:03.183Z,55.00
2022-11-26T07:14:37.766Z,54.80
2022-11-26T07:17:12.072Z,54.70
2022-11-26T07:19:46.061Z,54.70
2022-11-26T07:22:20.049Z,54.50
2022-11-26T07:24:55.588Z,54.20
2022-11-26T07:27:29.648Z,53.90
2022-11-26T07:30:03.669Z,53.80
2022-11-26T07:32:37.902Z,53.70
2022-11-26T07:35:11.810Z,53.50
2022-11-26T07:37:45.916Z,53.20
2022-11-26T07:40:21.374Z,52.90
2022-11-26T07:42:55.331Z,52.80
2022-11-26T07:45:31.583Z,52.80
2022-11-26T07:48:06.185Z,52.60
2022-11-26T07:50:40.120Z,52.50
2022-11-26T07:53:15.194Z,52.30
2022-11-26T07:55:50.672Z,52.10
2022-11-26T07:58:24.594Z,51.90
2022-11-26T08:00:58.543Z,51.70
2022-11-26T08:03:32.651Z,51.50
2022-11-26T08:06:09.047Z,51.40
2022-11-26T08:08:43.385Z,51.10
2022-11-26T08:11:20.874Z,50.90
2022-11-26T08:13:56.641Z,50.90
2022-11-26T08:16:30.938Z,50.70
2022-11-26T08:19:07.332Z,49.90
2022-11-26T08:21:41.978Z,46.50
2022-11-26T08:24:18.321Z,43.20
2022-11-26T08:26:53.807Z,37.40
2022-11-26T08:29:27.960Z,34.50
2022-11-26T08:32:02.024Z,33.70
2022-11-26T08:34:36.363Z,33.90
2022-11-26T08:37:10.835Z,35.30
2022-11-26T08:39:44.802Z,36.70
2022-11-26T08:42:20.272Z,37.00
2022-11-26T08:44:54.548Z,36.50
2022-11-26T08:47:29.461Z,36.50
2022-11-26T08:50:03.424Z,36.80
2022-11-26T08:52:37.793Z,37.20
2022-11-26T08:55:12.066Z,36.10
2022-11-26T08:57:48.492Z,37.00
2022-11-26T09:00:22.994Z,37.60
2022-11-26T09:02:57.285Z,37.80
2022-11-26T09:05:31.577Z,37.60
2022-11-26T09:08:05.960Z,37.40
2022-11-26T09:10:40.052Z,37.00
2022-11-26T09:13:20.773Z,37.00
2022-11-26T09:15:55.234Z,36.60
2022-11-26T09:18:29.518Z,36.90
2022-11-26T09:21:05.252Z,37.70
2022-11-26T09:23:39.207Z,38.00
2022-11-26T09:26:13.234Z,38.70
2022-11-26T09:28:49.254Z,38.70
2022-11-26T09:31:24.311Z,39.10
2022-11-26T09:33:59.371Z,39.70
2022-11-26T09:36:33.363Z,39.90
2022-11-26T09:39:08.026Z,40.30
2022-11-26T09:41:46.768Z,40.60
2022-11-26T09:44:31.707Z,40.90
2022-11-26T09:47:14.190Z,41.60
2022-11-26T09:50:02.691Z,41.80
2022-11-26T09:52:41.484Z,42.40
2022-11-26T09:55:19.665Z,42.20
2022-11-26T09:58:00.616Z,42.00
2022-11-26T10:00:40.369Z,42.50
2022-11-26T10:03:17.057Z,43.00
2022-11-26T10:05:58.711Z,43.10
2022-11-26T10:09:07.654Z,43.10
2022-11-26T10:11:49.387Z,43.20
2022-11-26T10:14:37.685Z,43.30
2022-11-26T10:17:29.329Z,43.90
2022-11-26T10:20:28.992Z,44.30
2022-11-26T10:23:08.962Z,44.80
2022-11-26T10:25:47.295Z,45.70
2022-11-26T10:28:23.443Z,46.80
2022-11-26T10:31:00.251Z,47.50
2022-11-26T10:33:42.895Z,48.00
2022-11-26T10:36:23.754Z,48.90
2022-11-26T10:38:57.811Z,48.90
2022-11-26T10:41:35.377Z,49.10
2022-11-26T10:44:40.239Z,49.10
2022-11-26T10:47:23.581Z,49.70
2022-11-26T10:50:45.489Z,49.70
2022-11-26T10:53:20.696Z,50.30
2022-11-26T10:55:57.117Z,50.00
2022-11-26T10:58:34.928Z,50.00
2022-11-26T11:01:09.500Z,50.10
2022-11-26T11:04:08.556Z,49.90
2022-11-26T11:06:45.142Z,50.10
2022-11-26T11:09:32.614Z,50.20
2022-11-26T11:12:17.976Z,50.00
2022-11-26T11:14:52.734Z,49.60
2022-11-26T11:17:37.560Z,49.30
2022-11-26T11:20:33.045Z,49.30
2022-11-26T11:23:23.133Z,48.90
2022-11-26T11:26:04.829Z,48.70
2022-11-26T11:28:42.918Z,48.70
2022-11-26T11:31:18.463Z,48.60
2022-11-26T11:33:53.965Z,48.40
2022-11-26T11:36:30.069Z,48.40
2022-11-26T11:39:05.862Z,48.60
2022-11-26T11:41:44.834Z,48.80
2022-11-26T11:44:22.225Z,49.10
2022-11-26T11:47:26.058Z,48.90
2022-11-26T11:50:13.791Z,49.30
2022-11-26T11:52:59.284Z,50.20
2022-11-26T11:55:49.061Z,50.80
2022-11-26T11:58:41.752Z,51.60
2022-11-26T12:01:28.224Z,52.00
2022-11-26T12:04:26.778Z,52.30
2022-11-26T12:07:23.548Z,52.00
2022-11-26T12:10:06.986Z,52.20
2022-11-26T12:12:47.736Z,52.10
2022-11-26T12:15:28.388Z,52.30
2022-11-26T12:18:10.059Z,53.10
2022-11-26T12:20:47.316Z,52.70
2022-11-26T12:23:30.691Z,52.50
2022-11-26T12:26:12.114Z,50.10
2022-11-26T12:28:55.064Z,50.10
2022-11-26T12:31:34.800Z,49.60
2022-11-26T12:34:14.387Z,49.20
2022-11-26T12:36:55.018Z,49.10
2022-11-26T12:39:40.027Z,49.00
2022-11-26T12:42:20.868Z,48.90
2022-11-26T12:45:07.199Z,48.90
2022-11-26T12:47:48.099Z,48.80
2022-11-26T12:50:29.035Z,48.70
2022-11-26T12:53:14.911Z,48.70
2022-11-26T12:55:57.882Z,48.80
2022-11-26T12:58:45.047Z,40.60
2022-11-26T13:01:20.856Z,35.00
2022-11-26T13:04:08.723Z,34.10
2022-11-26T13:07:04.529Z,34.20
2022-11-26T13:09:54.354Z,33.70
2022-11-26T13:12:38.346Z,35.20
2022-11-26T13:15:18.469Z,36.30
2022-11-26T13:17:57.462Z,36.30
2022-11-26T13:20:45.584Z,36.90
2022-11-26T13:23:39.698Z,36.60
2022-11-26T13:26:26.366Z,36.40
2022-11-26T13:29:20.075Z,36.20
2022-11-26T13:32:13.076Z,37.70
2022-11-26T13:35:05.155Z,36.00
2022-11-26T13:38:14.340Z,35.60
2022-11-26T13:41:05.622Z,35.90
2022-11-26T13:44:13.952Z,35.40
2022-11-26T13:46:53.356Z,35.00
2022-11-26T13:49:36.804Z,34.30
2022-11-26T13:52:16.878Z,34.10
2022-11-26T13:54:57.763Z,34.20
2022-11-26T13:57:39.737Z,34.30
2022-11-26T14:00:26.486Z,33.90
2022-11-26T14:03:01.610Z,33.10
2022-11-26T14:06:09.559Z,33.00
2022-11-26T14:08:46.859Z,33.10
2022-11-26T14:11:54.597Z,32.60
2022-11-26T14:14:33.800Z,33.40
2022-11-26T14:17:35.187Z,33.00
2022-11-26T14:20:12.960Z,34.70
2022-11-26T14:22:47.725Z,33.80
2022-11-26T14:25:39.115Z,34.30
2022-11-26T14:28:15.456Z,34.60
2022-11-26T14:30:49.025Z,34.60
2022-11-26T14:33:27.537Z,36.50
2022-11-26T14:36:01.643Z,35.40
2022-11-26T14:38:35.509Z,35.20
2022-11-26T14:41:10.550Z,35.70
2022-11-26T14:43:44.776Z,37.20
2022-11-26T14:46:18.900Z,36.50
2022-11-26T14:48:59.615Z,37.70
2022-11-26T14:51:34.123Z,37.00
2022-11-26T14:54:14.865Z,37.20
2022-11-26T14:56:50.812Z,37.70
2022-11-26T14:59:24.681Z,37.90
2022-11-26T15:02:00.194Z,38.30
2022-11-26T15:04:37.377Z,38.60
2022-11-26T15:07:25.365Z,39.20
2022-11-26T15:10:07.079Z,40.30
2022-11-26T15:12:43.396Z,40.10
2022-11-26T15:15:20.133Z,40.20
2022-11-26T15:17:57.069Z,40.30
2022-11-26T15:20:31.358Z,40.40
2022-11-26T15:23:06.948Z,40.50
2022-11-26T15:25:49.560Z,40.50
2022-11-26T15:28:25.280Z,40.30
2022-11-26T15:31:01.395Z,40.20
2022-11-26T15:33:37.091Z,40.10
2022-11-26T15:36:17.676Z,40.20
2022-11-26T15:39:03.211Z,40.40
2022-11-26T15:41:42.807Z,40.50
2022-11-26T15:44:24.080Z,40.60
2022-11-26T15:47:00.397Z,40.80
2022-11-26T15:49:37.417Z,41.00
2022-11-26T15:52:13.908Z,41.20
2022-11-26T15:55:11.949Z,41.60
2022-11-26T15:57:52.880Z,41.70
2022-11-26T16:00:35.122Z,42.00
2022-11-26T16:03:50.566Z,42.30
2022-11-26T16:06:33.685Z,42.60
2022-11-26T16:09:27.933Z,42.80
2022-11-26T16:12:03.062Z,43.10
2022-11-26T16:14:38.484Z,43.00
2022-11-26T16:17:17.243Z,43.10
2022-11-26T16:19:54.627Z,43.40
2022-11-26T16:22:34.142Z,43.40
2022-11-26T16:25:21.012Z,43.50
2022-11-26T16:28:15.661Z,43.60
2022-11-26T16:30:49.567Z,43.90
2022-11-26T16:33:24.785Z,43.80
2022-11-26T16:35:58.664Z,43.90
2022-11-26T16:38:32.128Z,43.90
2022-11-26T16:41:05.919Z,44.10
2022-11-26T16:43:39.435Z,44.00
2022-11-26T16:46:16.770Z,44.00
2022-11-26T16:48:52.851Z,44.00
2022-11-26T16:51:26.701Z,43.90
2022-11-26T16:54:00.229Z,43.80
2022-11-26T16:56:38.276Z,43.70
2022-11-26T16:59:24.306Z,43.70
2022-11-26T17:01:58.137Z,43.60
2022-11-26T17:04:33.108Z,43.50
2022-11-26T17:07:07.024Z,43.50
2022-11-26T17:09:41.302Z,43.40
2022-11-26T17:12:17.865Z,43.30
2022-11-26T17:17:31.587Z,43.00
2022-11-26T17:20:17.174Z,42.90
2022-11-26T17:22:53.158Z,42.80
2022-11-26T17:25:27.362Z,42.90
2022-11-26T17:28:01.597Z,42.80
2022-11-26T17:30:35.814Z,43.30
2022-11-26T17:33:12.399Z,42.70
2022-11-26T17:35:48.548Z,42.60
2022-11-26T17:38:23.748Z,42.70
2022-11-26T17:40:57.625Z,42.60
2022-11-26T17:43:31.590Z,42.40
2022-11-26T17:46:08.972Z,42.40
2022-11-26T17:48:46.494Z,42.50
2022-11-26T17:51:21.894Z,42.70
2022-11-26T17:53:55.951Z,43.10
2022-11-26T17:56:32.191Z,43.50
2022-11-26T17:59:05.781Z,43.50
2022-11-26T18:01:39.693Z,43.70
2022-11-26T18:04:13.677Z,43.90
2022-11-26T18:06:59.465Z,44.30
2022-11-26T18:09:33.481Z,44.70
2022-11-26T18:12:09.000Z,44.80
2022-11-26T18:14:43.356Z,45.20
2022-11-26T18:17:17.490Z,45.50
2022-11-26T18:19:51.401Z,46.30
2022-11-26T18:22:28.455Z,47.00
2022-11-26T18:25:02.322Z,47.30
2022-11-26T18:27:36.947Z,47.50
2022-11-26T18:30:11.649Z,47.80
2022-11-26T18:32:46.260Z,47.90
2022-11-26T18:35:20.174Z,47.70
2022-11-26T18:37:55.494Z,47.60
2022-11-26T18:40:29.617Z,47.50
2022-11-26T18:43:03.547Z,47.30
2022-11-26T18:45:37.661Z,47.30
2022-11-26T18:48:11.722Z,47.40
2022-11-26T18:50:45.770Z,47.40
2022-11-26T18:53:21.202Z,47.40
2022-11-26T18:55:55.406Z,47.30
2022-11-26T18:58:29.478Z,47.40
2022-11-26T19:01:03.972Z,47.50
2022-11-26T19:03:41.207Z,47.50
2022-11-26T19:06:20.113Z,47.70
2022-11-26T19:08:59.073Z,47.70
2022-11-26T19:11:34.007Z,47.80
2022-11-26T19:14:08.157Z,48.20
2022-11-26T19:16:42.865Z,48.40
2022-11-26T19:19:16.733Z,48.60
2022-11-26T19:21:51.047Z,48.80
2022-11-26T19:24:26.337Z,48.90
2022-11-26T19:27:00.717Z,48.80
2022-11-26T19:29:34.603Z,49.00
2022-11-26T19:32:08.676Z,49.20
2022-11-26T19:34:42.601Z,49.30
2022-11-26T19:37:16.610Z,49.40
2022-11-26T19:39:52.630Z,49.50
2022-11-26T19:42:26.578Z,49.60
2022-11-26T19:45:00.528Z,49.70
2022-11-26T19:47:34.758Z,49.80
2022-11-26T19:50:10.707Z,49.60
2022-11-26T19:52:47.903Z,49.60
2022-11-26T19:55:23.830Z,49.50
2022-11-26T19:57:57.770Z,49.40
2022-11-26T20:00:31.826Z,49.30
2022-11-26T20:03:06.122Z,49.10
2022-11-26T20:05:40.794Z,49.00
2022-11-26T20:08:15.065Z,48.90
2022-11-26T20:10:50.553Z,48.80
2022-11-26T20:13:24.645Z,48.40
2022-11-26T20:15:58.634Z,48.10
2022-11-26T20:18:32.210Z,47.90
2022-11-26T20:21:08.099Z,47.40
2022-11-26T20:23:41.964Z,47.20
2022-11-26T20:26:21.947Z,46.70
2022-11-26T20:28:56.769Z,46.40
2022-11-26T20:31:31.036Z,46.30
2022-11-26T20:34:05.760Z,46.30
2022-11-26T20:36:39.842Z,46.20
2022-11-26T20:39:15.382Z,46.50
2022-11-26T20:41:50.992Z,46.70
2022-11-26T20:44:26.922Z,46.70
2022-11-26T20:47:01.310Z,46.60
2022-11-26T20:49:41.461Z,47.10
2022-11-26T20:52:16.674Z,48.50
2022-11-26T20:54:53.631Z,49.20
2022-11-26T20:57:29.231Z,49.10
2022-11-26T21:00:04.502Z,49.60
2022-11-26T21:02:39.109Z,49.80
2022-11-26T21:05:13.727Z,49.80
2022-11-26T21:07:47.575Z,50.20
2022-11-26T21:10:25.263Z,50.40
2022-11-26T21:13:00.481Z,50.50
2022-11-26T21:15:34.495Z,49.80
2022-11-26T21:18:08.429Z,49.30
2022-11-26T21:20:42.821Z,48.80
2022-11-26T21:23:16.915Z,48.40
2022-11-26T21:25:50.852Z,47.80
2022-11-26T21:28:26.129Z,47.30
2022-11-26T21:31:00.232Z,47.00
2022-11-26T21:33:34.087Z,46.90
2022-11-26T21:36:08.491Z,46.60
2022-11-26T21:38:42.054Z,46.60
2022-11-26T21:41:17.128Z,46.70
2022-11-26T21:43:53.512Z,46.90
2022-11-26T21:46:36.503Z,47.20
2022-11-26T21:49:12.404Z,47.50
2022-11-26T21:51:46.330Z,47.80
2022-11-26T21:54:20.877Z,48.00
2022-11-26T21:56:58.037Z,48.30
2022-11-26T21:59:33.506Z,48.40
2022-11-26T22:02:08.189Z,48.80
2022-11-26T22:04:42.203Z,49.00
2022-11-26T22:07:16.215Z,49.20
2022-11-26T22:09:50.205Z,49.40
2022-11-26T22:12:23.818Z,49.90
2022-11-26T22:14:59.222Z,50.20
2022-11-26T22:17:33.401Z,50.20
2022-11-26T22:20:08.839Z,50.30
2022-11-26T22:22:42.786Z,50.30
2022-11-26T22:25:16.401Z,50.20
2022-11-26T22:27:50.377Z,50.30
2022-11-26T22:30:25.782Z,50.20
2022-11-26T22:32:59.691Z,50.20
2022-11-26T22:35:33.814Z,50.30
2022-11-26T22:38:07.827Z,50.30
2022-11-26T22:40:44.002Z,50.30
2022-11-26T22:43:17.899Z,50.40
2022-11-26T22:45:52.899Z,50.50
2022-11-26T22:48:27.277Z,50.40
2022-11-26T22:51:01.316Z,50.40
2022-11-26T22:53:35.183Z,50.40
2022-11-26T22:56:09.612Z,50.40
2022-11-26T22:58:43.561Z,50.30
2022-11-26T23:01:21.584Z,50.30
2022-11-26T23:03:56.767Z,50.30
2022-11-26T23:06:32.089Z,50.30
2022-11-26T23:09:07.894Z,50.30
2022-11-26T23:11:43.654Z,50.30
2022-11-26T23:14:17.698Z,50.20
2022-11-26T23:16:53.102Z,50.20
2022-11-26T23:19:26.929Z,50.20
2022-11-26T23:22:03.401Z,50.20
2022-11-26T23:24:37.246Z,50.10
2022-11-26T23:27:11.097Z,50.10
2022-11-26T23:29:44.632Z,50.10
2022-11-26T23:32:20.042Z,50.00
2022-11-26T23:34:54.052Z,50.00
2022-11-26T23:37:28.030Z,50.00
2022-11-26T23:40:01.572Z,49.90
2022-11-26T23:42:35.705Z,49.90
2022-11-26T23:45:10.772Z,49.90
2022-11-26T23:47:46.231Z,49.80
2022-11-26T23:50:20.487Z,49.80
2022-11-26T23:52:54.505Z,49.70
2022-11-26T23:55:28.052Z,49.70
2022-11-26T23:58:02.116Z,49.70
